NCAR-RAP Real-Time Weather Data

Output produced by METARs form (23 June 2018  19:32 UTC)
found at http://weather.rap.ucar.edu/surface/
 
RJOH 231900Z 24004KT 9999 FEW050 SCT070 BKN100 21/17 Q1004
RJOH 231800Z 19004KT 9999 FEW050 BKN070 BKN090 21/18 Q1004
RJOH 231700Z 24004KT 9999 FEW050 BKN070 OVC090 22/18 Q1004
RJOH 231600Z 18003KT 9999 -RA FEW050 BKN070 OVC090 21/18 Q1004
RJOH 231500Z VRB02KT 9999 -RA FEW050 BKN070 OVC090 22/17 Q1004
RJOH 231400Z 07003KT 9999 -RA FEW050 BKN070 OVC090 21/18 Q1004
RJOH 231300Z VRB01KT 9999 FEW050 SCT070 OVC090 23/15 Q1004
RJOH 231200Z VRB02KT 9999 FEW050 SCT070 OVC090 23/15 Q1004
RJOH 231100Z VRB01KT 9999 FEW050 BKN070 OVC110 23/15 Q1003
RJOH 231000Z 21005KT 9999 -RA FEW050 BKN070 OVC110 23/16 Q1004
RJOH 230900Z 21007KT 9999 FEW030 BKN070 BKN110 24/16 Q1003
RJOH 230800Z 27008KT 9999 FEW030 BKN080 BKN120 24/14 Q1003
RJOH 230700Z 28010KT 9999 FEW030 SCT100 BKN120 25/15 Q1003
RJOH 230600Z 25010KT 9999 FEW030 BKN120 BKN250 26/14 Q1003
RJOH 230500Z 28011KT 9999 FEW030 SCT080 BKN120 26/14 Q1003
RJOH 230400Z 26011KT 9999 FEW030 BKN120 BKN250 24/15 Q1004
RJOH 230300Z 18005KT 9999 -RA FEW050 SCT080 OVC120 24/18 Q1004
RJOH 230200Z 24005KT 9999 FEW100 SCT120 BKN150 25/15 Q1004
RJOH 230100Z 26005KT 9999 FEW100 SCT150 BKN180 25/13 Q1004
RJOH 230000Z 26003KT 230V290 9999 FEW030 BKN180 BKN240 25/13 Q1004
RJOH 222300Z VRB01KT 9999 FEW030 BKN180 BKN240 24/14 Q1004
RJOH 222200Z 20003KT 9999 FEW015 BKN180 BKN240 23/15 Q1004
RJOH 222100Z VRB02KT 9999 FEW060 BKN180 BKN230 21/15 Q1005
RJOH 222000Z 20005KT 9999 FEW060 BKN150 BKN180 20/16 Q1006
RJOH 221900Z 24003KT 210V280 9999 FEW060 BKN150 BKN180 20/16 Q1005
RJOH 221800Z VRB01KT 9999 FEW060 BKN190 BKN/// 20/16 Q1005
RJOH 221700Z VRB01KT 9999 FEW060 SCT190 BKN/// 20/16 Q1006
RJOH 221600Z VRB02KT 9999 FEW060 BKN/// 20/17 Q1007
RJOH 221500Z VRB02KT 9999 FEW060 BKN/// 21/17 Q1008
RJOH 221400Z 20004KT 9999 FEW060 BKN/// 21/17 Q1008
RJOH 221300Z 09003KT 9999 FEW060 BKN/// 21/16 Q1009
RJOH 221200Z 06004KT 9999 FEW060 BKN/// 21/17 Q1009
RJOH 221100Z 08004KT 9999 FEW060 BKN/// 22/18 Q1008
RJOH 221000Z 09005KT 9999 FEW060 BKN250 22/17 Q1008
RJOH 220900Z 07005KT 9999 FEW060 BKN250 23/17 Q1008
RJOH 220800Z 07009KT 9999 FEW060 BKN250 24/17 Q1008
RJOH 220700Z 06006KT 9999 FEW060 BKN250 27/14 Q1008
RJOH 220600Z 03007KT 9999 FEW060 BKN250 27/12 Q1008
RJOH 220500Z 05008KT 9999 FEW035 BKN250 27/14 Q1008
RJOH 220400Z 05007KT 9999 FEW035 BKN250 27/13 Q1009
RJOH 220300Z 05008KT 9999 FEW035 BKN250 28/13 Q1009
RJOH 220200Z 27005KT 240V310 9999 FEW060 BKN250 27/11 Q1009
RJOH 220100Z VRB02KT 9999 FEW190 BKN250 26/14 Q1010
RJOH 220000Z VRB02KT 9999 FEW190 BKN250 22/13 Q1010
RJOH 212300Z VRB02KT 9999 FEW190 BKN250 21/15 Q1010
RJOH 212200Z 22003KT 200V260 9999 FEW004 BKN250 18/14 Q1009
RJOH 212100Z 19004KT 9999 FEW004 BKN250 17/13 Q1009
RJOH 212000Z 18004KT 9999 FEW002 BKN250 15/12 Q1009
RJOH 211900Z 19004KT 9999 SCT/// 16/12 Q1009
RJOH 211800Z 18004KT 9999 FEW035 SCT/// 16/12 Q1008
RJOH 211700Z 19005KT 9999 FEW035 16/13 Q1008
RJOH 211600Z 18004KT 9999 FEW030 16/13 Q1008
RJOH 211500Z 20006KT 9999 FEW030 17/13 Q1008
RJOH 211400Z 18006KT 9999 FEW030 17/13 Q1008
RJOH 211300Z 20005KT 9999 FEW030 17/13 Q1008
RJOH 211200Z 22002KT 9999 FEW030 20/12 Q1008
RJOH 211100Z 20002KT 9999 FEW030 SCT/// 21/08 Q1007
RJOH 211000Z 35003KT 9999 FEW030 23/08 Q1007
RJOH 210900Z 32008KT 9999 FEW030 25/06 Q1007
RJOH 210800Z 33007KT 9999 FEW030 26/06 Q1006